sensor_id;sensor_type;location;lat;lon;timestamp;temperature;humidity
38941;DHT22;43236;47.208;7.518;2023-03-15T00:01:22;8.20;93.70
38941;DHT22;43236;47.208;7.518;2023-03-15T00:04:12;8.10;93.60
38941;DHT22;43236;47.208;7.518;2023-03-15T00:06:59;8.10;94.00
38941;DHT22;43236;47.208;7.518;2023-03-15T00:09:46;8.10;93.70
38941;DHT22;43236;47.208;7.518;2023-03-15T00:12:33;8.10;94.50
38941;DHT22;43236;47.208;7.518;2023-03-15T00:15:21;8.10;95.00
38941;DHT22;43236;47.208;7.518;2023-03-15T00:18:08;8.10;93.90
38941;DHT22;43236;47.208;7.518;2023-03-15T00:20:56;8.00;93.70
38941;DHT22;43236;47.208;7.518;2023-03-15T00:23:43;8.00;94.50
38941;DHT22;43236;47.208;7.518;2023-03-15T00:26:30;8.00;95.50
38941;DHT22;43236;47.208;7.518;2023-03-15T00:29:17;7.90;95.30
38941;DHT22;43236;47.208;7.518;2023-03-15T00:32:05;7.80;95.70
38941;DHT22;43236;47.208;7.518;2023-03-15T00:34:52;7.80;95.50
38941;DHT22;43236;47.208;7.518;2023-03-15T00:37:39;7.80;95.40
38941;DHT22;43236;47.208;7.518;2023-03-15T00:40:27;7.90;95.30
38941;DHT22;43236;47.208;7.518;2023-03-15T00:43:14;7.90;94.90
38941;DHT22;43236;47.208;7.518;2023-03-15T00:46:03;7.80;94.40
38941;DHT22;43236;47.208;7.518;2023-03-15T00:48:52;7.90;94.20
38941;DHT22;43236;47.208;7.518;2023-03-15T00:51:39;7.90;92.80
38941;DHT22;43236;47.208;7.518;2023-03-15T00:54:26;7.90;92.70
38941;DHT22;43236;47.208;7.518;2023-03-15T00:57:13;8.00;92.40
38941;DHT22;43236;47.208;7.518;2023-03-15T01:00:00;8.00;92.70
38941;DHT22;43236;47.208;7.518;2023-03-15T01:02:53;8.10;93.70
38941;DHT22;43236;47.208;7.518;2023-03-15T01:05:42;8.10;93.00
38941;DHT22;43236;47.208;7.518;2023-03-15T01:08:29;8.10;94.00
38941;DHT22;43236;47.208;7.518;2023-03-15T01:11:18;8.20;93.50
38941;DHT22;43236;47.208;7.518;2023-03-15T01:14:05;8.10;92.50
38941;DHT22;43236;47.208;7.518;2023-03-15T01:16:53;8.10;91.70
38941;DHT22;43236;47.208;7.518;2023-03-15T01:19:41;8.10;92.20
38941;DHT22;43236;47.208;7.518;2023-03-15T01:22:29;8.10;91.90
38941;DHT22;43236;47.208;7.518;2023-03-15T01:25:16;8.10;93.10
38941;DHT22;43236;47.208;7.518;2023-03-15T01:28:03;8.10;92.70
38941;DHT22;43236;47.208;7.518;2023-03-15T01:30:51;8.20;92.50
38941;DHT22;43236;47.208;7.518;2023-03-15T01:33:39;8.10;92.40
38941;DHT22;43236;47.208;7.518;2023-03-15T01:36:26;8.20;92.30
38941;DHT22;43236;47.208;7.518;2023-03-15T01:39:14;8.20;91.20
38941;DHT22;43236;47.208;7.518;2023-03-15T01:42:01;8.10;90.20
38941;DHT22;43236;47.208;7.518;2023-03-15T01:44:51;8.00;89.40
38941;DHT22;43236;47.208;7.518;2023-03-15T01:47:39;8.00;90.20
38941;DHT22;43236;47.208;7.518;2023-03-15T01:50:27;8.00;90.60
38941;DHT22;43236;47.208;7.518;2023-03-15T01:53:14;8.00;88.00
38941;DHT22;43236;47.208;7.518;2023-03-15T01:56:04;8.00;86.90
38941;DHT22;43236;47.208;7.518;2023-03-15T01:58:52;8.00;86.30
38941;DHT22;43236;47.208;7.518;2023-03-15T02:01:41;7.90;81.70
38941;DHT22;43236;47.208;7.518;2023-03-15T02:04:33;7.80;83.80
38941;DHT22;43236;47.208;7.518;2023-03-15T02:07:24;7.70;82.90
38941;DHT22;43236;47.208;7.518;2023-03-15T02:10:14;7.60;81.10
38941;DHT22;43236;47.208;7.518;2023-03-15T02:13:04;7.60;82.80
38941;DHT22;43236;47.208;7.518;2023-03-15T02:15:52;7.50;83.40
38941;DHT22;43236;47.208;7.518;2023-03-15T02:18:40;7.60;85.60
38941;DHT22;43236;47.208;7.518;2023-03-15T02:21:35;7.60;86.10
38941;DHT22;43236;47.208;7.518;2023-03-15T02:24:31;7.50;86.00
38941;DHT22;43236;47.208;7.518;2023-03-15T02:27:25;7.50;85.30
38941;DHT22;43236;47.208;7.518;2023-03-15T02:30:13;7.50;87.80
38941;DHT22;43236;47.208;7.518;2023-03-15T02:33:02;7.50;89.70
38941;DHT22;43236;47.208;7.518;2023-03-15T02:35:51;7.50;90.00
38941;DHT22;43236;47.208;7.518;2023-03-15T02:38:38;7.50;89.80
38941;DHT22;43236;47.208;7.518;2023-03-15T02:41:28;7.50;90.00
38941;DHT22;43236;47.208;7.518;2023-03-15T02:44:21;7.50;90.10
38941;DHT22;43236;47.208;7.518;2023-03-15T02:47:13;7.50;90.30
38941;DHT22;43236;47.208;7.518;2023-03-15T02:50:02;7.40;90.10
38941;DHT22;43236;47.208;7.518;2023-03-15T02:52:49;7.40;90.10
38941;DHT22;43236;47.208;7.518;2023-03-15T02:55:37;7.30;90.10
38941;DHT22;43236;47.208;7.518;2023-03-15T02:58:24;7.30;90.50
38941;DHT22;43236;47.208;7.518;2023-03-15T03:01:13;7.20;91.00
38941;DHT22;43236;47.208;7.518;2023-03-15T03:04:00;7.20;91.00
38941;DHT22;43236;47.208;7.518;2023-03-15T03:06:47;7.20;91.20
38941;DHT22;43236;47.208;7.518;2023-03-15T03:09:34;7.10;91.30
38941;DHT22;43236;47.208;7.518;2023-03-15T03:12:21;7.10;91.10
38941;DHT22;43236;47.208;7.518;2023-03-15T03:15:09;7.00;91.10
38941;DHT22;43236;47.208;7.518;2023-03-15T03:17:58;7.00;91.20
38941;DHT22;43236;47.208;7.518;2023-03-15T03:20:45;6.90;90.90
38941;DHT22;43236;47.208;7.518;2023-03-15T03:23:33;6.80;91.00
38941;DHT22;43236;47.208;7.518;2023-03-15T03:26:20;6.80;90.70
38941;DHT22;43236;47.208;7.518;2023-03-15T03:29:13;6.80;90.30
38941;DHT22;43236;47.208;7.518;2023-03-15T03:32:01;6.80;90.40
38941;DHT22;43236;47.208;7.518;2023-03-15T03:34:49;6.70;90.40
38941;DHT22;43236;47.208;7.518;2023-03-15T03:37:36;6.70;90.60
38941;DHT22;43236;47.208;7.518;2023-03-15T03:40:23;6.70;90.30
38941;DHT22;43236;47.208;7.518;2023-03-15T03:43:11;6.60;90.30
38941;DHT22;43236;47.208;7.518;2023-03-15T03:45:58;6.60;90.50
38941;DHT22;43236;47.208;7.518;2023-03-15T03:48:45;6.60;90.40
38941;DHT22;43236;47.208;7.518;2023-03-15T03:51:33;6.50;90.30
38941;DHT22;43236;47.208;7.518;2023-03-15T03:54:22;6.50;90.40
38941;DHT22;43236;47.208;7.518;2023-03-15T03:57:10;6.50;90.90
38941;DHT22;43236;47.208;7.518;2023-03-15T03:59:57;6.50;90.80
38941;DHT22;43236;47.208;7.518;2023-03-15T04:02:44;6.40;90.50
38941;DHT22;43236;47.208;7.518;2023-03-15T04:05:31;6.30;90.20
38941;DHT22;43236;47.208;7.518;2023-03-15T04:08:20;6.30;90.60
38941;DHT22;43236;47.208;7.518;2023-03-15T04:11:07;6.30;90.80
38941;DHT22;43236;47.208;7.518;2023-03-15T04:13:54;6.30;90.60
38941;DHT22;43236;47.208;7.518;2023-03-15T04:16:41;6.20;91.00
38941;DHT22;43236;47.208;7.518;2023-03-15T04:19:29;6.10;90.70
38941;DHT22;43236;47.208;7.518;2023-03-15T04:22:16;6.10;91.10
38941;DHT22;43236;47.208;7.518;2023-03-15T04:25:05;6.00;91.40
38941;DHT22;43236;47.208;7.518;2023-03-15T04:27:53;6.00;91.20
38941;DHT22;43236;47.208;7.518;2023-03-15T04:30:45;6.00;91.30
38941;DHT22;43236;47.208;7.518;2023-03-15T04:33:33;5.90;91.40
38941;DHT22;43236;47.208;7.518;2023-03-15T04:36:20;5.90;91.00
38941;DHT22;43236;47.208;7.518;2023-03-15T04:39:07;5.90;91.30
38941;DHT22;43236;47.208;7.518;2023-03-15T04:41:56;5.90;91.90
38941;DHT22;43236;47.208;7.518;2023-03-15T04:44:43;5.90;91.70
38941;DHT22;43236;47.208;7.518;2023-03-15T04:47:30;5.80;92.00
38941;DHT22;43236;47.208;7.518;2023-03-15T04:50:17;5.70;91.90
38941;DHT22;43236;47.208;7.518;2023-03-15T04:53:05;5.60;91.70
38941;DHT22;43236;47.208;7.518;2023-03-15T04:55:52;5.50;92.00
38941;DHT22;43236;47.208;7.518;2023-03-15T04:58:41;5.40;92.30
38941;DHT22;43236;47.208;7.518;2023-03-15T05:01:30;5.40;92.40
38941;DHT22;43236;47.208;7.518;2023-03-15T05:04:17;5.50;92.40
38941;DHT22;43236;47.208;7.518;2023-03-15T05:07:04;5.40;92.50
38941;DHT22;43236;47.208;7.518;2023-03-15T05:09:51;5.40;92.40
38941;DHT22;43236;47.208;7.518;2023-03-15T05:12:39;5.40;92.40
38941;DHT22;43236;47.208;7.518;2023-03-15T05:15:27;5.40;92.40
38941;DHT22;43236;47.208;7.518;2023-03-15T05:18:14;5.30;92.30
38941;DHT22;43236;47.208;7.518;2023-03-15T05:21:01;5.30;92.20
38941;DHT22;43236;47.208;7.518;2023-03-15T05:23:50;5.30;92.70
38941;DHT22;43236;47.208;7.518;2023-03-15T05:26:37;5.20;92.50
38941;DHT22;43236;47.208;7.518;2023-03-15T05:29:24;5.20;92.70
38941;DHT22;43236;47.208;7.518;2023-03-15T05:32:13;5.20;92.70
38941;DHT22;43236;47.208;7.518;2023-03-15T05:35:00;5.20;92.70
38941;DHT22;43236;47.208;7.518;2023-03-15T05:37:47;5.10;92.70
38941;DHT22;43236;47.208;7.518;2023-03-15T05:40:34;5.10;92.70
38941;DHT22;43236;47.208;7.518;2023-03-15T05:43:21;5.10;92.70
38941;DHT22;43236;47.208;7.518;2023-03-15T05:46:08;5.10;92.90
38941;DHT22;43236;47.208;7.518;2023-03-15T05:48:57;5.00;93.10
38941;DHT22;43236;47.208;7.518;2023-03-15T05:51:44;4.90;92.80
38941;DHT22;43236;47.208;7.518;2023-03-15T05:54:31;4.90;93.30
38941;DHT22;43236;47.208;7.518;2023-03-15T05:57:18;4.90;93.20
38941;DHT22;43236;47.208;7.518;2023-03-15T06:00:06;4.90;93.10
38941;DHT22;43236;47.208;7.518;2023-03-15T06:02:54;4.90;93.30
38941;DHT22;43236;47.208;7.518;2023-03-15T06:05:43;4.80;93.40
38941;DHT22;43236;47.208;7.518;2023-03-15T06:08:30;4.80;93.50
38941;DHT22;43236;47.208;7.518;2023-03-15T06:11:17;4.80;93.70
38941;DHT22;43236;47.208;7.518;2023-03-15T06:14:04;4.70;93.60
38941;DHT22;43236;47.208;7.518;2023-03-15T06:16:51;4.80;93.90
38941;DHT22;43236;47.208;7.518;2023-03-15T06:19:38;4.80;93.70
38941;DHT22;43236;47.208;7.518;2023-03-15T06:22:26;4.70;93.90
38941;DHT22;43236;47.208;7.518;2023-03-15T06:25:14;4.70;94.00
38941;DHT22;43236;47.208;7.518;2023-03-15T06:28:01;4.80;94.10
38941;DHT22;43236;47.208;7.518;2023-03-15T06:30:48;4.80;93.80
38941;DHT22;43236;47.208;7.518;2023-03-15T06:33:35;4.90;93.90
38941;DHT22;43236;47.208;7.518;2023-03-15T06:36:22;5.00;93.80
38941;DHT22;43236;47.208;7.518;2023-03-15T06:39:11;5.10;93.60
38941;DHT22;43236;47.208;7.518;2023-03-15T06:41:59;5.20;93.60
38941;DHT22;43236;47.208;7.518;2023-03-15T06:44:47;5.30;94.00
38941;DHT22;43236;47.208;7.518;2023-03-15T06:47:34;5.30;93.40
38941;DHT22;43236;47.208;7.518;2023-03-15T06:50:21;5.40;94.10
38941;DHT22;43236;47.208;7.518;2023-03-15T06:53:08;5.50;94.30
38941;DHT22;43236;47.208;7.518;2023-03-15T06:55:56;5.50;93.80
38941;DHT22;43236;47.208;7.518;2023-03-15T06:58:44;5.60;93.80
38941;DHT22;43236;47.208;7.518;2023-03-15T07:01:31;5.60;94.00
38941;DHT22;43236;47.208;7.518;2023-03-15T07:04:18;5.70;93.70
38941;DHT22;43236;47.208;7.518;2023-03-15T07:07:06;5.80;93.40
38941;DHT22;43236;47.208;7.518;2023-03-15T07:09:53;5.80;93.10
38941;DHT22;43236;47.208;7.518;2023-03-15T07:12:41;7.10;93.50
38941;DHT22;43236;47.208;7.518;2023-03-15T07:15:28;5.90;93.30
38941;DHT22;43236;47.208;7.518;2023-03-15T07:18:15;5.90;93.40
38941;DHT22;43236;47.208;7.518;2023-03-15T07:21:04;5.90;92.90
38941;DHT22;43236;47.208;7.518;2023-03-15T07:23:51;6.00;92.60
38941;DHT22;43236;47.208;7.518;2023-03-15T07:26:38;6.00;92.00
38941;DHT22;43236;47.208;7.518;2023-03-15T07:29:27;6.00;92.30
38941;DHT22;43236;47.208;7.518;2023-03-15T07:32:14;6.10;92.40
38941;DHT22;43236;47.208;7.518;2023-03-15T07:35:01;6.10;91.90
38941;DHT22;43236;47.208;7.518;2023-03-15T07:37:48;6.20;92.10
38941;DHT22;43236;47.208;7.518;2023-03-15T07:40:36;6.20;91.50
38941;DHT22;43236;47.208;7.518;2023-03-15T07:43:23;6.30;91.90
38941;DHT22;43236;47.208;7.518;2023-03-15T07:46:12;6.40;92.20
38941;DHT22;43236;47.208;7.518;2023-03-15T07:48:59;6.40;91.30
38941;DHT22;43236;47.208;7.518;2023-03-15T07:51:46;6.40;91.80
38941;DHT22;43236;47.208;7.518;2023-03-15T07:54:33;6.50;91.10
38941;DHT22;43236;47.208;7.518;2023-03-15T07:57:20;6.60;90.80
38941;DHT22;43236;47.208;7.518;2023-03-15T08:00:08;6.60;89.80
38941;DHT22;43236;47.208;7.518;2023-03-15T08:02:58;6.60;88.90
38941;DHT22;43236;47.208;7.518;2023-03-15T08:05:45;6.60;89.10
38941;DHT22;43236;47.208;7.518;2023-03-15T08:08:32;6.70;90.10
38941;DHT22;43236;47.208;7.518;2023-03-15T08:11:19;6.70;90.40
38941;DHT22;43236;47.208;7.518;2023-03-15T08:14:06;6.80;90.50
38941;DHT22;43236;47.208;7.518;2023-03-15T08:16:53;6.80;90.10
38941;DHT22;43236;47.208;7.518;2023-03-15T08:19:42;6.80;90.00
38941;DHT22;43236;47.208;7.518;2023-03-15T08:22:29;6.90;89.70
38941;DHT22;43236;47.208;7.518;2023-03-15T08:25:19;6.90;90.30
38941;DHT22;43236;47.208;7.518;2023-03-15T08:28:07;6.90;88.70
38941;DHT22;43236;47.208;7.518;2023-03-15T08:30:54;6.90;88.40
38941;DHT22;43236;47.208;7.518;2023-03-15T08:33:41;7.00;89.20
38941;DHT22;43236;47.208;7.518;2023-03-15T08:36:30;7.00;90.30
38941;DHT22;43236;47.208;7.518;2023-03-15T08:39:17;7.10;90.80
38941;DHT22;43236;47.208;7.518;2023-03-15T08:42:05;7.20;89.50
38941;DHT22;43236;47.208;7.518;2023-03-15T08:44:52;7.20;89.50
38941;DHT22;43236;47.208;7.518;2023-03-15T08:47:44;7.20;90.30
38941;DHT22;43236;47.208;7.518;2023-03-15T08:50:31;7.30;89.30
38941;DHT22;43236;47.208;7.518;2023-03-15T08:53:20;7.30;90.00
38941;DHT22;43236;47.208;7.518;2023-03-15T08:56:07;7.30;90.60
38941;DHT22;43236;47.208;7.518;2023-03-15T08:58:54;7.40;90.30
38941;DHT22;43236;47.208;7.518;2023-03-15T09:01:41;7.40;90.30
38941;DHT22;43236;47.208;7.518;2023-03-15T09:04:29;7.40;89.70
38941;DHT22;43236;47.208;7.518;2023-03-15T09:07:16;7.40;90.00
38941;DHT22;43236;47.208;7.518;2023-03-15T09:10:05;7.50;90.40
38941;DHT22;43236;47.208;7.518;2023-03-15T09:12:52;7.50;89.30
38941;DHT22;43236;47.208;7.518;2023-03-15T09:15:40;7.50;89.70
38941;DHT22;43236;47.208;7.518;2023-03-15T09:18:27;7.50;90.10
38941;DHT22;43236;47.208;7.518;2023-03-15T09:21:14;7.60;87.50
38941;DHT22;43236;47.208;7.518;2023-03-15T09:24:01;7.60;86.30
38941;DHT22;43236;47.208;7.518;2023-03-15T09:26:50;7.60;85.10
38941;DHT22;43236;47.208;7.518;2023-03-15T09:29:37;7.70;84.60
38941;DHT22;43236;47.208;7.518;2023-03-15T09:32:24;7.70;84.50
38941;DHT22;43236;47.208;7.518;2023-03-15T09:35:13;7.70;84.80
38941;DHT22;43236;47.208;7.518;2023-03-15T09:38:01;7.80;84.00
38941;DHT22;43236;47.208;7.518;2023-03-15T09:40:49;7.80;82.00
38941;DHT22;43236;47.208;7.518;2023-03-15T09:43:47;7.80;83.80
38941;DHT22;43236;47.208;7.518;2023-03-15T09:46:41;7.90;82.30
38941;DHT22;43236;47.208;7.518;2023-03-15T09:49:33;8.00;84.50
38941;DHT22;43236;47.208;7.518;2023-03-15T09:52:25;8.10;84.90
38941;DHT22;43236;47.208;7.518;2023-03-15T09:55:17;8.10;83.60
38941;DHT22;43236;47.208;7.518;2023-03-15T09:58:10;8.20;83.30
38941;DHT22;43236;47.208;7.518;2023-03-15T10:01:02;8.20;84.20
38941;DHT22;43236;47.208;7.518;2023-03-15T10:03:52;8.30;81.40
38941;DHT22;43236;47.208;7.518;2023-03-15T10:06:43;8.30;82.90
38941;DHT22;43236;47.208;7.518;2023-03-15T10:09:32;8.40;84.20
38941;DHT22;43236;47.208;7.518;2023-03-15T10:12:24;8.40;86.50
38941;DHT22;43236;47.208;7.518;2023-03-15T10:15:25;8.60;85.70
38941;DHT22;43236;47.208;7.518;2023-03-15T10:18:24;8.60;83.50
38941;DHT22;43236;47.208;7.518;2023-03-15T10:21:19;8.70;85.10
38941;DHT22;43236;47.208;7.518;2023-03-15T10:24:17;8.70;84.40
38941;DHT22;43236;47.208;7.518;2023-03-15T10:27:14;8.70;83.10
38941;DHT22;43236;47.208;7.518;2023-03-15T10:30:14;8.70;80.60
38941;DHT22;43236;47.208;7.518;2023-03-15T10:33:03;8.80;84.00
38941;DHT22;43236;47.208;7.518;2023-03-15T10:35:54;8.80;82.50
38941;DHT22;43236;47.208;7.518;2023-03-15T10:38:41;8.90;81.50
38941;DHT22;43236;47.208;7.518;2023-03-15T10:41:36;8.90;83.50
38941;DHT22;43236;47.208;7.518;2023-03-15T10:44:25;9.00;77.70
38941;DHT22;43236;47.208;7.518;2023-03-15T10:47:12;9.00;77.70
38941;DHT22;43236;47.208;7.518;2023-03-15T10:50:02;9.10;78.60
38941;DHT22;43236;47.208;7.518;2023-03-15T10:52:54;9.10;77.80
38941;DHT22;43236;47.208;7.518;2023-03-15T10:55:43;9.10;77.40
38941;DHT22;43236;47.208;7.518;2023-03-15T10:58:39;9.20;76.80
38941;DHT22;43236;47.208;7.518;2023-03-15T11:01:28;9.20;78.30
38941;DHT22;43236;47.208;7.518;2023-03-15T11:04:20;9.30;78.90
38941;DHT22;43236;47.208;7.518;2023-03-15T11:07:08;9.30;78.10
38941;DHT22;43236;47.208;7.518;2023-03-15T11:10:01;9.40;79.20
38941;DHT22;43236;47.208;7.518;2023-03-15T11:12:49;9.50;76.70
38941;DHT22;43236;47.208;7.518;2023-03-15T11:15:37;9.60;77.40
38941;DHT22;43236;47.208;7.518;2023-03-15T11:18:27;9.60;76.10
38941;DHT22;43236;47.208;7.518;2023-03-15T11:21:16;9.70;74.30
38941;DHT22;43236;47.208;7.518;2023-03-15T11:24:06;9.80;76.80
38941;DHT22;43236;47.208;7.518;2023-03-15T11:26:57;9.90;74.70
38941;DHT22;43236;47.208;7.518;2023-03-15T11:29:47;10.00;69.80
38941;DHT22;43236;47.208;7.518;2023-03-15T11:32:37;10.10;70.30
38941;DHT22;43236;47.208;7.518;2023-03-15T11:35:30;10.20;73.00
38941;DHT22;43236;47.208;7.518;2023-03-15T11:38:29;10.20;71.60
38941;DHT22;43236;47.208;7.518;2023-03-15T11:41:24;10.30;71.60
38941;DHT22;43236;47.208;7.518;2023-03-15T11:44:21;10.30;70.70
38941;DHT22;43236;47.208;7.518;2023-03-15T11:47:15;10.40;71.30
38941;DHT22;43236;47.208;7.518;2023-03-15T11:50:04;10.50;71.30
38941;DHT22;43236;47.208;7.518;2023-03-15T11:52:52;10.50;69.50
38941;DHT22;43236;47.208;7.518;2023-03-15T11:55:39;10.60;69.10
38941;DHT22;43236;47.208;7.518;2023-03-15T11:58:28;10.70;70.50
38941;DHT22;43236;47.208;7.518;2023-03-15T12:01:25;10.80;71.40
38941;DHT22;43236;47.208;7.518;2023-03-15T12:07:37;11.10;69.90
38941;DHT22;43236;47.208;7.518;2023-03-15T12:10:41;11.20;70.10
38941;DHT22;43236;47.208;7.518;2023-03-15T12:13:34;11.40;70.30
38941;DHT22;43236;47.208;7.518;2023-03-15T12:16:25;11.40;68.40
38941;DHT22;43236;47.208;7.518;2023-03-15T12:19:15;11.50;68.10
38941;DHT22;43236;47.208;7.518;2023-03-15T12:22:02;11.50;66.20
38941;DHT22;43236;47.208;7.518;2023-03-15T12:24:49;11.50;66.70
38941;DHT22;43236;47.208;7.518;2023-03-15T12:27:37;11.50;68.90
38941;DHT22;43236;47.208;7.518;2023-03-15T12:30:30;11.60;68.50
38941;DHT22;43236;47.208;7.518;2023-03-15T12:33:21;11.60;65.50
38941;DHT22;43236;47.208;7.518;2023-03-15T12:36:15;11.60;66.90
38941;DHT22;43236;47.208;7.518;2023-03-15T12:39:20;11.70;67.70
38941;DHT22;43236;47.208;7.518;2023-03-15T12:45:41;11.80;67.90
38941;DHT22;43236;47.208;7.518;2023-03-15T12:48:31;11.90;65.90
38941;DHT22;43236;47.208;7.518;2023-03-15T12:51:41;11.80;66.30
38941;DHT22;43236;47.208;7.518;2023-03-15T12:54:33;11.80;67.60
38941;DHT22;43236;47.208;7.518;2023-03-15T12:57:25;11.90;68.70
38941;DHT22;43236;47.208;7.518;2023-03-15T13:00:15;11.90;64.90
38941;DHT22;43236;47.208;7.518;2023-03-15T13:03:06;12.00;67.60
38941;DHT22;43236;47.208;7.518;2023-03-15T13:06:01;12.00;66.70
38941;DHT22;43236;47.208;7.518;2023-03-15T13:08:57;12.00;64.70
38941;DHT22;43236;47.208;7.518;2023-03-15T13:11:50;12.10;67.70
38941;DHT22;43236;47.208;7.518;2023-03-15T13:14:43;12.10;64.60
38941;DHT22;43236;47.208;7.518;2023-03-15T13:17:37;12.10;64.40
38941;DHT22;43236;47.208;7.518;2023-03-15T13:20:37;12.10;67.10
38941;DHT22;43236;47.208;7.518;2023-03-15T13:23:29;12.10;68.00
38941;DHT22;43236;47.208;7.518;2023-03-15T13:26:24;12.10;70.50
38941;DHT22;43236;47.208;7.518;2023-03-15T13:29:15;12.10;65.90
38941;DHT22;43236;47.208;7.518;2023-03-15T13:32:11;12.20;65.50
38941;DHT22;43236;47.208;7.518;2023-03-15T13:34:59;12.20;66.10
38941;DHT22;43236;47.208;7.518;2023-03-15T13:37:46;12.10;62.10
38941;DHT22;43236;47.208;7.518;2023-03-15T13:40:44;12.10;64.70
38941;DHT22;43236;47.208;7.518;2023-03-15T13:43:33;12.00;65.80
38941;DHT22;43236;47.208;7.518;2023-03-15T13:46:22;11.90;61.70
38941;DHT22;43236;47.208;7.518;2023-03-15T13:49:10;11.90;61.40
38941;DHT22;43236;47.208;7.518;2023-03-15T13:51:58;11.80;61.40
38941;DHT22;43236;47.208;7.518;2023-03-15T13:54:47;11.80;62.90
38941;DHT22;43236;47.208;7.518;2023-03-15T13:57:36;11.70;59.90
38941;DHT22;43236;47.208;7.518;2023-03-15T14:00:23;11.70;62.40
38941;DHT22;43236;47.208;7.518;2023-03-15T14:03:13;11.70;59.50
38941;DHT22;43236;47.208;7.518;2023-03-15T14:06:02;11.60;59.40
38941;DHT22;43236;47.208;7.518;2023-03-15T14:08:51;11.60;58.00
38941;DHT22;43236;47.208;7.518;2023-03-15T14:11:40;11.60;60.90
38941;DHT22;43236;47.208;7.518;2023-03-15T14:14:34;11.50;59.70
38941;DHT22;43236;47.208;7.518;2023-03-15T14:17:26;11.40;56.20
38941;DHT22;43236;47.208;7.518;2023-03-15T14:20:15;11.30;52.70
38941;DHT22;43236;47.208;7.518;2023-03-15T14:23:03;11.20;54.20
38941;DHT22;43236;47.208;7.518;2023-03-15T14:25:53;11.20;54.00
38941;DHT22;43236;47.208;7.518;2023-03-15T14:28:41;11.10;53.70
38941;DHT22;43236;47.208;7.518;2023-03-15T14:31:39;11.10;51.90
38941;DHT22;43236;47.208;7.518;2023-03-15T14:34:31;11.10;50.30
38941;DHT22;43236;47.208;7.518;2023-03-15T14:37:29;11.20;52.00
38941;DHT22;43236;47.208;7.518;2023-03-15T14:40:20;11.30;53.40
38941;DHT22;43236;47.208;7.518;2023-03-15T14:43:08;11.40;53.20
38941;DHT22;43236;47.208;7.518;2023-03-15T14:45:56;11.40;51.10
38941;DHT22;43236;47.208;7.518;2023-03-15T14:48:44;11.30;50.50
38941;DHT22;43236;47.208;7.518;2023-03-15T14:51:31;11.30;50.70
38941;DHT22;43236;47.208;7.518;2023-03-15T14:54:19;11.20;49.70
38941;DHT22;43236;47.208;7.518;2023-03-15T14:57:07;11.20;50.20
38941;DHT22;43236;47.208;7.518;2023-03-15T14:59:54;11.20;52.10
38941;DHT22;43236;47.208;7.518;2023-03-15T15:02:42;11.20;53.20
38941;DHT22;43236;47.208;7.518;2023-03-15T15:05:33;11.20;52.90
38941;DHT22;43236;47.208;7.518;2023-03-15T15:08:21;11.20;53.30
38941;DHT22;43236;47.208;7.518;2023-03-15T15:11:08;11.30;53.10
38941;DHT22;43236;47.208;7.518;2023-03-15T15:13:55;11.30;54.00
38941;DHT22;43236;47.208;7.518;2023-03-15T15:16:43;11.30;54.90
38941;DHT22;43236;47.208;7.518;2023-03-15T15:19:30;11.30;53.40
38941;DHT22;43236;47.208;7.518;2023-03-15T15:22:19;11.30;53.20
38941;DHT22;43236;47.208;7.518;2023-03-15T15:25:13;11.30;53.40
38941;DHT22;43236;47.208;7.518;2023-03-15T15:28:00;11.30;54.90
38941;DHT22;43236;47.208;7.518;2023-03-15T15:30:47;11.20;51.90
38941;DHT22;43236;47.208;7.518;2023-03-15T15:33:34;11.20;51.20
38941;DHT22;43236;47.208;7.518;2023-03-15T15:36:24;11.20;51.00
38941;DHT22;43236;47.208;7.518;2023-03-15T15:39:20;11.20;51.50
38941;DHT22;43236;47.208;7.518;2023-03-15T15:42:08;11.20;53.00
38941;DHT22;43236;47.208;7.518;2023-03-15T15:44:55;11.20;52.10
38941;DHT22;43236;47.208;7.518;2023-03-15T15:47:43;11.20;51.60
38941;DHT22;43236;47.208;7.518;2023-03-15T15:50:31;11.20;53.60
38941;DHT22;43236;47.208;7.518;2023-03-15T15:53:18;11.10;53.20
38941;DHT22;43236;47.208;7.518;2023-03-15T15:56:09;11.20;54.80
38941;DHT22;43236;47.208;7.518;2023-03-15T15:58:57;11.10;54.40
38941;DHT22;43236;47.208;7.518;2023-03-15T16:01:46;11.10;55.10
38941;DHT22;43236;47.208;7.518;2023-03-15T16:04:34;11.20;55.40
38941;DHT22;43236;47.208;7.518;2023-03-15T16:07:21;11.10;54.20
38941;DHT22;43236;47.208;7.518;2023-03-15T16:10:16;11.20;54.50
38941;DHT22;43236;47.208;7.518;2023-03-15T16:13:05;11.20;55.10
38941;DHT22;43236;47.208;7.518;2023-03-15T16:15:52;11.20;56.30
38941;DHT22;43236;47.208;7.518;2023-03-15T16:18:39;11.20;53.60
38941;DHT22;43236;47.208;7.518;2023-03-15T16:21:30;11.20;54.80
38941;DHT22;43236;47.208;7.518;2023-03-15T16:24:21;11.20;55.50
38941;DHT22;43236;47.208;7.518;2023-03-15T16:27:13;11.20;56.40
38941;DHT22;43236;47.208;7.518;2023-03-15T16:30:02;11.30;56.20
38941;DHT22;43236;47.208;7.518;2023-03-15T16:32:50;11.30;56.40
38941;DHT22;43236;47.208;7.518;2023-03-15T16:35:39;11.20;57.20
38941;DHT22;43236;47.208;7.518;2023-03-15T16:38:29;11.20;57.20
38941;DHT22;43236;47.208;7.518;2023-03-15T16:41:17;11.20;57.30
38941;DHT22;43236;47.208;7.518;2023-03-15T16:44:09;11.20;57.70
38941;DHT22;43236;47.208;7.518;2023-03-15T16:46:58;11.20;57.80
38941;DHT22;43236;47.208;7.518;2023-03-15T16:49:45;11.10;58.40
38941;DHT22;43236;47.208;7.518;2023-03-15T16:52:32;11.10;59.20
38941;DHT22;43236;47.208;7.518;2023-03-15T16:55:23;11.00;59.00
38941;DHT22;43236;47.208;7.518;2023-03-15T16:58:16;11.00;59.40
38941;DHT22;43236;47.208;7.518;2023-03-15T17:01:03;10.90;60.70
38941;DHT22;43236;47.208;7.518;2023-03-15T17:03:54;10.90;60.30
38941;DHT22;43236;47.208;7.518;2023-03-15T17:06:42;10.80;61.10
38941;DHT22;43236;47.208;7.518;2023-03-15T17:09:30;10.70;60.40
38941;DHT22;43236;47.208;7.518;2023-03-15T17:12:20;10.60;60.40
38941;DHT22;43236;47.208;7.518;2023-03-15T17:15:09;10.50;60.30
38941;DHT22;43236;47.208;7.518;2023-03-15T17:17:56;10.40;60.50
38941;DHT22;43236;47.208;7.518;2023-03-15T17:20:46;10.30;61.10
38941;DHT22;43236;47.208;7.518;2023-03-15T17:23:34;10.30;61.60
38941;DHT22;43236;47.208;7.518;2023-03-15T17:26:22;10.20;61.60
38941;DHT22;43236;47.208;7.518;2023-03-15T17:29:12;10.10;61.60
38941;DHT22;43236;47.208;7.518;2023-03-15T17:31:59;10.10;61.80
38941;DHT22;43236;47.208;7.518;2023-03-15T17:34:46;10.10;62.70
38941;DHT22;43236;47.208;7.518;2023-03-15T17:37:35;10.10;63.80
38941;DHT22;43236;47.208;7.518;2023-03-15T17:40:25;10.00;63.20
38941;DHT22;43236;47.208;7.518;2023-03-15T17:43:14;10.00;64.30
38941;DHT22;43236;47.208;7.518;2023-03-15T17:46:01;10.00;66.00
38941;DHT22;43236;47.208;7.518;2023-03-15T17:48:48;9.90;65.60
38941;DHT22;43236;47.208;7.518;2023-03-15T17:51:36;9.90;64.40
38941;DHT22;43236;47.208;7.518;2023-03-15T17:54:25;9.90;64.80
38941;DHT22;43236;47.208;7.518;2023-03-15T17:57:12;9.80;67.10
38941;DHT22;43236;47.208;7.518;2023-03-15T17:59:59;9.80;69.60
38941;DHT22;43236;47.208;7.518;2023-03-15T18:02:47;9.70;70.60
38941;DHT22;43236;47.208;7.518;2023-03-15T18:05:34;9.70;70.60